Portada
METAR-TAF:

METAR-TAF

Aeropuertos :

Aeropuerto Internacional de Polokwane

Polokwane, Sudáfrica

latitud: 23-50-43S, longitud: 29-27-31E, altitud: 1242 m

Observación

El informe se hizo hace 17 minutos, a las 15:00 UTC
Viento 4 kt del suroeste
Temperatura 30°C
Humedad 19%
Presión 1022 hPa

METAR: FAPP 231500Z AUTO 23004KT //// // ////// 30/04 Q1022

Hora: 17:17 (15:17 UTC)

Pronóstico

El informe se hizo hace 6 horas y 17 minutos, a las 09:00 UTC
Pronóstico válido del 23 a las 10 UTC al 23 a las 18 UTC
Viento 3 kt con dirección variable
Visibilidad 10 km o más
sin nubes por debajo de 1500 m y sin presencia de cumulonimbus.

TAF: FAPP 230900Z 2310/2318 VRB03KT CAVOK TX33/2313Z TN22/2318Z

Observaciones y pronósticos meteorológicos de más de 4000 aeropuertos (mensajes METAR y TAF).

Los puntos amarillos y rojos representan las estaciones disponibles.

Ponga el ratón en el punto deseado para ver el nombre de la estación.

Haga clic para ver las observaciones y los pronósticos meteorológicos.

Para cambiar el mapa : haga clic en los botones verdes con una cruz de color negro para hacer un zoom, en el botón verde con un guión para alejar o en las flechas verdes para mapas adyacentes.


METAR-TAF: